sensor_id;sensor_type;location;lat;lon;timestamp;P1;durP1;ratioP1;P2;durP2;ratioP2
40122;SDS011;25832;45.490;4.912;2023-03-14T00:00:58;2.75;;;0.90;;
40122;SDS011;25832;45.490;4.912;2023-03-14T00:03:23;3.80;;;0.70;;
40122;SDS011;25832;45.490;4.912;2023-03-14T00:05:49;1.92;;;0.85;;
40122;SDS011;25832;45.490;4.912;2023-03-14T00:08:15;1.02;;;0.80;;
40122;SDS011;25832;45.490;4.912;2023-03-14T00:10:40;2.00;;;0.70;;
40122;SDS011;25832;45.490;4.912;2023-03-14T00:13:06;0.85;;;0.60;;
40122;SDS011;25832;45.490;4.912;2023-03-14T00:15:32;0.88;;;0.50;;
40122;SDS011;25832;45.490;4.912;2023-03-14T00:17:59;0.70;;;0.50;;
40122;SDS011;25832;45.490;4.912;2023-03-14T00:20:25;0.70;;;0.52;;
40122;SDS011;25832;45.490;4.912;2023-03-14T00:22:51;3.15;;;0.80;;
40122;SDS011;25832;45.490;4.912;2023-03-14T00:25:17;1.25;;;0.65;;
40122;SDS011;25832;45.490;4.912;2023-03-14T00:27:42;3.05;;;0.65;;
40122;SDS011;25832;45.490;4.912;2023-03-14T00:30:08;1.60;;;0.60;;
40122;SDS011;25832;45.490;4.912;2023-03-14T00:32:35;0.35;;;0.35;;
40122;SDS011;25832;45.490;4.912;2023-03-14T00:35:01;3.10;;;0.40;;
40122;SDS011;25832;45.490;4.912;2023-03-14T00:37:28;0.47;;;0.30;;
40122;SDS011;25832;45.490;4.912;2023-03-14T00:39:54;0.80;;;0.40;;
40122;SDS011;25832;45.490;4.912;2023-03-14T00:42:19;0.60;;;0.60;;
40122;SDS011;25832;45.490;4.912;2023-03-14T00:44:45;3.22;;;0.55;;
40122;SDS011;25832;45.490;4.912;2023-03-14T00:47:11;0.73;;;0.43;;
40122;SDS011;25832;45.490;4.912;2023-03-14T00:49:36;1.10;;;0.57;;
40122;SDS011;25832;45.490;4.912;2023-03-14T00:52:02;1.02;;;0.68;;
40122;SDS011;25832;45.490;4.912;2023-03-14T00:54:28;0.73;;;0.50;;
40122;SDS011;25832;45.490;4.912;2023-03-14T00:56:54;1.88;;;0.45;;
40122;SDS011;25832;45.490;4.912;2023-03-14T00:59:20;0.73;;;0.38;;
40122;SDS011;25832;45.490;4.912;2023-03-14T01:01:45;0.85;;;0.40;;
40122;SDS011;25832;45.490;4.912;2023-03-14T01:04:11;1.80;;;0.70;;
40122;SDS011;25832;45.490;4.912;2023-03-14T01:06:36;0.95;;;0.55;;
40122;SDS011;25832;45.490;4.912;2023-03-14T01:09:04;1.88;;;0.68;;
40122;SDS011;25832;45.490;4.912;2023-03-14T01:11:30;2.58;;;0.60;;
40122;SDS011;25832;45.490;4.912;2023-03-14T01:13:58;2.97;;;0.85;;
40122;SDS011;25832;45.490;4.912;2023-03-14T01:16:25;1.35;;;0.50;;
40122;SDS011;25832;45.490;4.912;2023-03-14T01:18:52;0.60;;;0.40;;
40122;SDS011;25832;45.490;4.912;2023-03-14T01:21:22;0.95;;;0.63;;
40122;SDS011;25832;45.490;4.912;2023-03-14T01:23:50;1.27;;;0.60;;
40122;SDS011;25832;45.490;4.912;2023-03-14T01:26:19;0.55;;;0.43;;
40122;SDS011;25832;45.490;4.912;2023-03-14T01:28:47;0.73;;;0.73;;
40122;SDS011;25832;45.490;4.912;2023-03-14T01:31:14;2.92;;;0.57;;
40122;SDS011;25832;45.490;4.912;2023-03-14T01:33:40;0.88;;;0.45;;
40122;SDS011;25832;45.490;4.912;2023-03-14T01:36:06;1.15;;;0.50;;
40122;SDS011;25832;45.490;4.912;2023-03-14T01:38:33;0.52;;;0.50;;
40122;SDS011;25832;45.490;4.912;2023-03-14T01:41:00;0.85;;;0.40;;
40122;SDS011;25832;45.490;4.912;2023-03-14T01:43:27;3.55;;;0.52;;
40122;SDS011;25832;45.490;4.912;2023-03-14T01:51:02;0.73;;;0.40;;
40122;SDS011;25832;45.490;4.912;2023-03-14T01:53:31;0.35;;;0.30;;
40122;SDS011;25832;45.490;4.912;2023-03-14T01:55:58;0.52;;;0.30;;
40122;SDS011;25832;45.490;4.912;2023-03-14T01:58:24;1.17;;;0.40;;
40122;SDS011;25832;45.490;4.912;2023-03-14T02:00:53;2.22;;;0.90;;
40122;SDS011;25832;45.490;4.912;2023-03-14T02:03:22;1.80;;;0.60;;
40122;SDS011;25832;45.490;4.912;2023-03-14T02:05:49;1.83;;;0.47;;
40122;SDS011;25832;45.490;4.912;2023-03-14T02:08:19;1.95;;;0.43;;
40122;SDS011;25832;45.490;4.912;2023-03-14T02:10:48;1.17;;;1.10;;
40122;SDS011;25832;45.490;4.912;2023-03-14T02:13:15;2.85;;;0.65;;
40122;SDS011;25832;45.490;4.912;2023-03-14T02:15:43;3.13;;;0.40;;
40122;SDS011;25832;45.490;4.912;2023-03-14T02:18:09;2.63;;;0.77;;
40122;SDS011;25832;45.490;4.912;2023-03-14T02:23:07;0.57;;;0.30;;
40122;SDS011;25832;45.490;4.912;2023-03-14T02:25:46;3.92;;;0.73;;
40122;SDS011;25832;45.490;4.912;2023-03-14T02:28:18;2.38;;;0.43;;
40122;SDS011;25832;45.490;4.912;2023-03-14T02:30:45;1.38;;;0.50;;
40122;SDS011;25832;45.490;4.912;2023-03-14T02:33:13;0.63;;;0.40;;
40122;SDS011;25832;45.490;4.912;2023-03-14T02:35:45;3.53;;;0.60;;
40122;SDS011;25832;45.490;4.912;2023-03-14T02:38:19;0.30;;;0.30;;
40122;SDS011;25832;45.490;4.912;2023-03-14T02:40:52;0.80;;;0.60;;
40122;SDS011;25832;45.490;4.912;2023-03-14T02:43:18;6.00;;;0.70;;
40122;SDS011;25832;45.490;4.912;2023-03-14T02:45:44;3.17;;;0.43;;
40122;SDS011;25832;45.490;4.912;2023-03-14T02:48:22;1.83;;;0.50;;
40122;SDS011;25832;45.490;4.912;2023-03-14T02:50:52;2.03;;;0.50;;
40122;SDS011;25832;45.490;4.912;2023-03-14T02:53:29;1.50;;;0.52;;
40122;SDS011;25832;45.490;4.912;2023-03-14T02:55:56;1.23;;;0.40;;
40122;SDS011;25832;45.490;4.912;2023-03-14T02:58:23;1.38;;;0.57;;
40122;SDS011;25832;45.490;4.912;2023-03-14T03:00:48;3.17;;;0.50;;
40122;SDS011;25832;45.490;4.912;2023-03-14T03:03:14;4.88;;;0.70;;
40122;SDS011;25832;45.490;4.912;2023-03-14T03:05:40;1.13;;;0.50;;
40122;SDS011;25832;45.490;4.912;2023-03-14T03:08:07;1.95;;;0.50;;
40122;SDS011;25832;45.490;4.912;2023-03-14T03:10:34;1.83;;;0.57;;
40122;SDS011;25832;45.490;4.912;2023-03-14T03:12:59;4.13;;;0.57;;
40122;SDS011;25832;45.490;4.912;2023-03-14T03:15:25;0.55;;;0.38;;
40122;SDS011;25832;45.490;4.912;2023-03-14T03:17:51;2.95;;;0.73;;
40122;SDS011;25832;45.490;4.912;2023-03-14T03:20:17;3.88;;;0.68;;
40122;SDS011;25832;45.490;4.912;2023-03-14T03:22:42;1.98;;;0.82;;
40122;SDS011;25832;45.490;4.912;2023-03-14T03:25:08;0.43;;;0.30;;
40122;SDS011;25832;45.490;4.912;2023-03-14T03:27:35;1.42;;;0.77;;
40122;SDS011;25832;45.490;4.912;2023-03-14T03:30:01;2.05;;;0.57;;
40122;SDS011;25832;45.490;4.912;2023-03-14T03:32:29;1.95;;;0.47;;
40122;SDS011;25832;45.490;4.912;2023-03-14T03:34:54;5.53;;;0.55;;
40122;SDS011;25832;45.490;4.912;2023-03-14T03:37:20;0.70;;;0.52;;
40122;SDS011;25832;45.490;4.912;2023-03-14T03:39:46;0.77;;;0.35;;
40122;SDS011;25832;45.490;4.912;2023-03-14T03:42:11;1.65;;;0.45;;
40122;SDS011;25832;45.490;4.912;2023-03-14T03:44:37;3.35;;;0.50;;
40122;SDS011;25832;45.490;4.912;2023-03-14T03:47:03;2.05;;;0.80;;
40122;SDS011;25832;45.490;4.912;2023-03-14T03:49:29;1.38;;;0.75;;
40122;SDS011;25832;45.490;4.912;2023-03-14T03:51:55;1.65;;;0.40;;
40122;SDS011;25832;45.490;4.912;2023-03-14T03:54:21;2.95;;;0.40;;
40122;SDS011;25832;45.490;4.912;2023-03-14T03:56:47;0.95;;;0.52;;
40122;SDS011;25832;45.490;4.912;2023-03-14T03:59:12;0.90;;;0.40;;
40122;SDS011;25832;45.490;4.912;2023-03-14T04:01:38;1.02;;;0.50;;
40122;SDS011;25832;45.490;4.912;2023-03-14T04:04:04;0.93;;;0.60;;
40122;SDS011;25832;45.490;4.912;2023-03-14T04:06:29;0.43;;;0.28;;
40122;SDS011;25832;45.490;4.912;2023-03-14T04:08:55;1.13;;;0.40;;
40122;SDS011;25832;45.490;4.912;2023-03-14T04:11:21;0.75;;;0.20;;
40122;SDS011;25832;45.490;4.912;2023-03-14T04:13:47;0.90;;;0.55;;
40122;SDS011;25832;45.490;4.912;2023-03-14T04:16:14;4.38;;;1.42;;
40122;SDS011;25832;45.490;4.912;2023-03-14T04:18:45;6.28;;;1.00;;
40122;SDS011;25832;45.490;4.912;2023-03-14T04:21:10;4.63;;;0.57;;
40122;SDS011;25832;45.490;4.912;2023-03-14T04:23:36;1.40;;;0.50;;
40122;SDS011;25832;45.490;4.912;2023-03-14T04:26:02;0.88;;;0.20;;
40122;SDS011;25832;45.490;4.912;2023-03-14T04:28:27;1.05;;;0.40;;
40122;SDS011;25832;45.490;4.912;2023-03-14T04:30:53;0.60;;;0.30;;
40122;SDS011;25832;45.490;4.912;2023-03-14T04:33:19;1.38;;;0.52;;
40122;SDS011;25832;45.490;4.912;2023-03-14T04:35:45;3.60;;;0.70;;
40122;SDS011;25832;45.490;4.912;2023-03-14T04:38:11;3.65;;;0.57;;
40122;SDS011;25832;45.490;4.912;2023-03-14T04:40:38;4.68;;;0.70;;
40122;SDS011;25832;45.490;4.912;2023-03-14T04:43:05;1.02;;;0.57;;
40122;SDS011;25832;45.490;4.912;2023-03-14T04:45:31;1.63;;;0.77;;
40122;SDS011;25832;45.490;4.912;2023-03-14T04:47:57;1.25;;;0.40;;
40122;SDS011;25832;45.490;4.912;2023-03-14T04:50:23;1.95;;;0.35;;
40122;SDS011;25832;45.490;4.912;2023-03-14T04:52:48;2.55;;;0.85;;
40122;SDS011;25832;45.490;4.912;2023-03-14T04:55:14;0.98;;;0.50;;
40122;SDS011;25832;45.490;4.912;2023-03-14T04:57:40;1.35;;;0.45;;
40122;SDS011;25832;45.490;4.912;2023-03-14T05:00:06;3.63;;;0.70;;
40122;SDS011;25832;45.490;4.912;2023-03-14T05:02:32;2.13;;;0.47;;
40122;SDS011;25832;45.490;4.912;2023-03-14T05:04:58;1.83;;;0.65;;
40122;SDS011;25832;45.490;4.912;2023-03-14T05:07:24;1.33;;;0.40;;
40122;SDS011;25832;45.490;4.912;2023-03-14T05:09:50;1.83;;;0.60;;
40122;SDS011;25832;45.490;4.912;2023-03-14T05:12:16;1.02;;;0.60;;
40122;SDS011;25832;45.490;4.912;2023-03-14T05:14:41;2.63;;;0.50;;
40122;SDS011;25832;45.490;4.912;2023-03-14T05:17:07;0.90;;;0.40;;
40122;SDS011;25832;45.490;4.912;2023-03-14T05:19:33;1.33;;;0.70;;
40122;SDS011;25832;45.490;4.912;2023-03-14T05:21:58;5.05;;;0.77;;
40122;SDS011;25832;45.490;4.912;2023-03-14T05:24:24;1.05;;;0.60;;
40122;SDS011;25832;45.490;4.912;2023-03-14T05:26:50;2.75;;;0.95;;
40122;SDS011;25832;45.490;4.912;2023-03-14T05:29:15;2.15;;;0.80;;
40122;SDS011;25832;45.490;4.912;2023-03-14T05:31:41;3.10;;;0.63;;
40122;SDS011;25832;45.490;4.912;2023-03-14T05:34:06;1.17;;;0.52;;
40122;SDS011;25832;45.490;4.912;2023-03-14T05:36:32;1.25;;;0.63;;
40122;SDS011;25832;45.490;4.912;2023-03-14T05:38:58;1.55;;;0.80;;
40122;SDS011;25832;45.490;4.912;2023-03-14T05:41:23;2.35;;;0.80;;
40122;SDS011;25832;45.490;4.912;2023-03-14T05:43:49;0.88;;;0.60;;
40122;SDS011;25832;45.490;4.912;2023-03-14T05:46:15;1.55;;;0.50;;
40122;SDS011;25832;45.490;4.912;2023-03-14T05:48:40;1.05;;;0.30;;
40122;SDS011;25832;45.490;4.912;2023-03-14T05:51:06;4.28;;;0.75;;
40122;SDS011;25832;45.490;4.912;2023-03-14T05:53:32;2.20;;;0.95;;
40122;SDS011;25832;45.490;4.912;2023-03-14T05:55:57;3.38;;;0.77;;
40122;SDS011;25832;45.490;4.912;2023-03-14T05:58:23;2.28;;;0.77;;
40122;SDS011;25832;45.490;4.912;2023-03-14T06:00:49;2.28;;;1.05;;
40122;SDS011;25832;45.490;4.912;2023-03-14T06:03:15;1.85;;;0.40;;
40122;SDS011;25832;45.490;4.912;2023-03-14T06:05:41;2.17;;;0.70;;
40122;SDS011;25832;45.490;4.912;2023-03-14T06:08:06;2.85;;;0.50;;
40122;SDS011;25832;45.490;4.912;2023-03-14T06:10:32;3.28;;;0.73;;
40122;SDS011;25832;45.490;4.912;2023-03-14T06:13:00;3.03;;;0.80;;
40122;SDS011;25832;45.490;4.912;2023-03-14T06:15:26;3.05;;;0.70;;
40122;SDS011;25832;45.490;4.912;2023-03-14T06:17:53;0.70;;;0.43;;
40122;SDS011;25832;45.490;4.912;2023-03-14T06:20:20;2.17;;;0.90;;
40122;SDS011;25832;45.490;4.912;2023-03-14T06:22:46;1.00;;;0.90;;
40122;SDS011;25832;45.490;4.912;2023-03-14T06:25:11;3.70;;;0.63;;
40122;SDS011;25832;45.490;4.912;2023-03-14T06:27:37;1.50;;;0.43;;
40122;SDS011;25832;45.490;4.912;2023-03-14T06:30:03;2.15;;;0.63;;
40122;SDS011;25832;45.490;4.912;2023-03-14T06:32:29;3.10;;;0.52;;
40122;SDS011;25832;45.490;4.912;2023-03-14T06:34:55;1.65;;;0.60;;
40122;SDS011;25832;45.490;4.912;2023-03-14T06:37:22;1.17;;;0.35;;
40122;SDS011;25832;45.490;4.912;2023-03-14T06:39:48;0.52;;;0.40;;
40122;SDS011;25832;45.490;4.912;2023-03-14T06:42:13;1.95;;;0.47;;
40122;SDS011;25832;45.490;4.912;2023-03-14T06:44:39;2.35;;;0.70;;
40122;SDS011;25832;45.490;4.912;2023-03-14T06:47:05;4.32;;;0.82;;
40122;SDS011;25832;45.490;4.912;2023-03-14T06:49:30;1.33;;;0.60;;
40122;SDS011;25832;45.490;4.912;2023-03-14T06:51:56;3.10;;;0.68;;
40122;SDS011;25832;45.490;4.912;2023-03-14T06:54:22;2.40;;;0.70;;
40122;SDS011;25832;45.490;4.912;2023-03-14T06:56:47;1.50;;;0.47;;
40122;SDS011;25832;45.490;4.912;2023-03-14T06:59:13;3.22;;;1.00;;
40122;SDS011;25832;45.490;4.912;2023-03-14T07:01:39;3.25;;;0.63;;
40122;SDS011;25832;45.490;4.912;2023-03-14T07:04:05;1.48;;;0.77;;
40122;SDS011;25832;45.490;4.912;2023-03-14T07:06:30;3.53;;;0.75;;
40122;SDS011;25832;45.490;4.912;2023-03-14T07:08:57;3.03;;;0.68;;
40122;SDS011;25832;45.490;4.912;2023-03-14T07:11:23;1.65;;;0.73;;
40122;SDS011;25832;45.490;4.912;2023-03-14T07:13:49;4.18;;;0.60;;
40122;SDS011;25832;45.490;4.912;2023-03-14T07:16:14;1.38;;;0.50;;
40122;SDS011;25832;45.490;4.912;2023-03-14T07:18:40;3.75;;;0.90;;
40122;SDS011;25832;45.490;4.912;2023-03-14T07:21:06;2.30;;;0.68;;
40122;SDS011;25832;45.490;4.912;2023-03-14T07:23:34;3.55;;;0.88;;
40122;SDS011;25832;45.490;4.912;2023-03-14T07:26:00;0.75;;;0.40;;
40122;SDS011;25832;45.490;4.912;2023-03-14T07:28:26;1.80;;;0.57;;
40122;SDS011;25832;45.490;4.912;2023-03-14T07:30:52;5.38;;;1.15;;
40122;SDS011;25832;45.490;4.912;2023-03-14T07:33:19;1.48;;;0.52;;
40122;SDS011;25832;45.490;4.912;2023-03-14T07:35:46;5.95;;;1.67;;
40122;SDS011;25832;45.490;4.912;2023-03-14T07:38:13;2.47;;;0.88;;
40122;SDS011;25832;45.490;4.912;2023-03-14T07:40:39;1.33;;;0.50;;
40122;SDS011;25832;45.490;4.912;2023-03-14T07:43:05;0.90;;;0.68;;
40122;SDS011;25832;45.490;4.912;2023-03-14T07:45:31;4.55;;;0.90;;
40122;SDS011;25832;45.490;4.912;2023-03-14T07:47:56;5.13;;;0.85;;
40122;SDS011;25832;45.490;4.912;2023-03-14T07:50:23;1.40;;;0.63;;
40122;SDS011;25832;45.490;4.912;2023-03-14T07:52:51;5.30;;;0.70;;
40122;SDS011;25832;45.490;4.912;2023-03-14T07:55:18;1.60;;;0.63;;
40122;SDS011;25832;45.490;4.912;2023-03-14T07:57:44;7.25;;;0.98;;
40122;SDS011;25832;45.490;4.912;2023-03-14T08:00:10;2.45;;;0.70;;
40122;SDS011;25832;45.490;4.912;2023-03-14T08:02:36;1.75;;;0.82;;
40122;SDS011;25832;45.490;4.912;2023-03-14T08:05:02;3.45;;;0.82;;
40122;SDS011;25832;45.490;4.912;2023-03-14T08:07:28;1.70;;;0.57;;
40122;SDS011;25832;45.490;4.912;2023-03-14T08:09:54;3.25;;;0.73;;
40122;SDS011;25832;45.490;4.912;2023-03-14T08:12:20;3.72;;;0.73;;
40122;SDS011;25832;45.490;4.912;2023-03-14T08:14:45;2.70;;;0.40;;
40122;SDS011;25832;45.490;4.912;2023-03-14T08:17:11;2.67;;;0.65;;
40122;SDS011;25832;45.490;4.912;2023-03-14T08:19:37;1.52;;;0.55;;
40122;SDS011;25832;45.490;4.912;2023-03-14T08:22:02;1.50;;;0.63;;
40122;SDS011;25832;45.490;4.912;2023-03-14T08:24:29;1.20;;;0.52;;
40122;SDS011;25832;45.490;4.912;2023-03-14T08:26:55;1.70;;;0.60;;
40122;SDS011;25832;45.490;4.912;2023-03-14T08:29:20;1.05;;;0.55;;
40122;SDS011;25832;45.490;4.912;2023-03-14T08:31:46;2.00;;;0.70;;
40122;SDS011;25832;45.490;4.912;2023-03-14T08:34:13;0.60;;;0.52;;
40122;SDS011;25832;45.490;4.912;2023-03-14T08:36:40;2.05;;;0.70;;
40122;SDS011;25832;45.490;4.912;2023-03-14T08:39:05;0.50;;;0.45;;
40122;SDS011;25832;45.490;4.912;2023-03-14T08:41:32;4.68;;;1.38;;
40122;SDS011;25832;45.490;4.912;2023-03-14T08:43:58;2.47;;;0.55;;
40122;SDS011;25832;45.490;4.912;2023-03-14T08:46:24;0.15;;;0.15;;
40122;SDS011;25832;45.490;4.912;2023-03-14T08:48:49;1.67;;;0.40;;
40122;SDS011;25832;45.490;4.912;2023-03-14T08:51:15;1.08;;;0.47;;
40122;SDS011;25832;45.490;4.912;2023-03-14T08:53:42;2.30;;;0.70;;
40122;SDS011;25832;45.490;4.912;2023-03-14T08:56:08;1.67;;;0.50;;
40122;SDS011;25832;45.490;4.912;2023-03-14T08:58:35;1.48;;;0.55;;
40122;SDS011;25832;45.490;4.912;2023-03-14T09:01:03;3.95;;;0.50;;
40122;SDS011;25832;45.490;4.912;2023-03-14T09:03:30;3.95;;;0.93;;
40122;SDS011;25832;45.490;4.912;2023-03-14T09:05:55;1.85;;;0.50;;
40122;SDS011;25832;45.490;4.912;2023-03-14T09:08:26;3.08;;;0.68;;
40122;SDS011;25832;45.490;4.912;2023-03-14T09:10:51;2.88;;;0.65;;
40122;SDS011;25832;45.490;4.912;2023-03-14T09:13:17;1.98;;;0.50;;
40122;SDS011;25832;45.490;4.912;2023-03-14T09:15:42;4.15;;;0.80;;
40122;SDS011;25832;45.490;4.912;2023-03-14T09:18:08;1.27;;;0.38;;
40122;SDS011;25832;45.490;4.912;2023-03-14T09:20:34;0.73;;;0.50;;
40122;SDS011;25832;45.490;4.912;2023-03-14T09:22:59;2.08;;;0.50;;
40122;SDS011;25832;45.490;4.912;2023-03-14T09:25:25;2.83;;;0.63;;
40122;SDS011;25832;45.490;4.912;2023-03-14T09:27:51;1.35;;;0.55;;
40122;SDS011;25832;45.490;4.912;2023-03-14T09:30:16;2.78;;;0.40;;
40122;SDS011;25832;45.490;4.912;2023-03-14T09:32:42;0.93;;;0.47;;
40122;SDS011;25832;45.490;4.912;2023-03-14T09:35:08;3.72;;;0.88;;
40122;SDS011;25832;45.490;4.912;2023-03-14T09:37:34;1.95;;;0.45;;
40122;SDS011;25832;45.490;4.912;2023-03-14T09:40:00;1.45;;;0.70;;
40122;SDS011;25832;45.490;4.912;2023-03-14T09:42:32;1.83;;;0.45;;
40122;SDS011;25832;45.490;4.912;2023-03-14T09:45:00;6.88;;;0.60;;
40122;SDS011;25832;45.490;4.912;2023-03-14T09:47:33;1.55;;;0.70;;
40122;SDS011;25832;45.490;4.912;2023-03-14T09:50:00;1.27;;;0.63;;
40122;SDS011;25832;45.490;4.912;2023-03-14T09:52:31;4.03;;;0.52;;
40122;SDS011;25832;45.490;4.912;2023-03-14T09:55:02;3.58;;;0.57;;
40122;SDS011;25832;45.490;4.912;2023-03-14T09:57:32;6.03;;;0.98;;
40122;SDS011;25832;45.490;4.912;2023-03-14T10:00:06;2.00;;;0.68;;
40122;SDS011;25832;45.490;4.912;2023-03-14T10:02:40;3.17;;;1.10;;
40122;SDS011;25832;45.490;4.912;2023-03-14T10:05:15;8.02;;;1.02;;
40122;SDS011;25832;45.490;4.912;2023-03-14T10:07:43;2.90;;;0.80;;
40122;SDS011;25832;45.490;4.912;2023-03-14T10:10:13;7.00;;;0.90;;
40122;SDS011;25832;45.490;4.912;2023-03-14T10:12:47;1.77;;;0.82;;
40122;SDS011;25832;45.490;4.912;2023-03-14T10:15:24;5.53;;;0.88;;
40122;SDS011;25832;45.490;4.912;2023-03-14T10:17:51;6.53;;;1.02;;
40122;SDS011;25832;45.490;4.912;2023-03-14T10:20:36;3.17;;;1.05;;
40122;SDS011;25832;45.490;4.912;2023-03-14T10:23:04;4.40;;;1.40;;
40122;SDS011;25832;45.490;4.912;2023-03-14T10:25:46;5.07;;;1.00;;
40122;SDS011;25832;45.490;4.912;2023-03-14T10:28:34;7.40;;;1.20;;
40122;SDS011;25832;45.490;4.912;2023-03-14T10:31:13;4.55;;;1.00;;
40122;SDS011;25832;45.490;4.912;2023-03-14T10:33:40;5.65;;;2.15;;
40122;SDS011;25832;45.490;4.912;2023-03-14T10:36:15;6.00;;;1.10;;
40122;SDS011;25832;45.490;4.912;2023-03-14T10:38:42;3.38;;;0.90;;
40122;SDS011;25832;45.490;4.912;2023-03-14T10:41:15;5.13;;;1.23;;
40122;SDS011;25832;45.490;4.912;2023-03-14T10:43:49;2.92;;;1.20;;
40122;SDS011;25832;45.490;4.912;2023-03-14T10:46:19;7.35;;;1.60;;
40122;SDS011;25832;45.490;4.912;2023-03-14T10:48:45;7.10;;;1.17;;
40122;SDS011;25832;45.490;4.912;2023-03-14T10:56:24;5.07;;;1.63;;
40122;SDS011;25832;45.490;4.912;2023-03-14T10:58:52;5.72;;;1.50;;
40122;SDS011;25832;45.490;4.912;2023-03-14T11:14:57;6.55;;;2.17;;
40122;SDS011;25832;45.490;4.912;2023-03-14T11:20:42;2.63;;;1.20;;
40122;SDS011;25832;45.490;4.912;2023-03-14T11:23:18;3.33;;;1.05;;
40122;SDS011;25832;45.490;4.912;2023-03-14T11:28:35;5.07;;;1.73;;
40122;SDS011;25832;45.490;4.912;2023-03-14T11:31:36;4.90;;;1.00;;
40122;SDS011;25832;45.490;4.912;2023-03-14T11:36:39;4.55;;;2.38;;
40122;SDS011;25832;45.490;4.912;2023-03-14T11:39:29;4.20;;;1.35;;
40122;SDS011;25832;45.490;4.912;2023-03-14T11:42:03;8.30;;;2.08;;
40122;SDS011;25832;45.490;4.912;2023-03-14T11:44:33;6.03;;;2.50;;
40122;SDS011;25832;45.490;4.912;2023-03-14T11:47:07;4.85;;;2.40;;
40122;SDS011;25832;45.490;4.912;2023-03-14T11:49:48;4.38;;;1.50;;
40122;SDS011;25832;45.490;4.912;2023-03-14T11:52:25;8.02;;;1.85;;
40122;SDS011;25832;45.490;4.912;2023-03-14T11:57:22;9.18;;;2.15;;
40122;SDS011;25832;45.490;4.912;2023-03-14T12:10:50;7.80;;;1.60;;
40122;SDS011;25832;45.490;4.912;2023-03-14T12:13:19;4.63;;;1.67;;
40122;SDS011;25832;45.490;4.912;2023-03-14T12:15:47;5.68;;;1.55;;
40122;SDS011;25832;45.490;4.912;2023-03-14T12:20:54;1.88;;;0.90;;
40122;SDS011;25832;45.490;4.912;2023-03-14T12:28:36;2.58;;;1.20;;
40122;SDS011;25832;45.490;4.912;2023-03-14T12:39:15;4.90;;;1.17;;
40122;SDS011;25832;45.490;4.912;2023-03-14T12:42:01;2.83;;;0.70;;
40122;SDS011;25832;45.490;4.912;2023-03-14T12:46:59;1.90;;;0.80;;
40122;SDS011;25832;45.490;4.912;2023-03-14T12:49:39;1.70;;;0.77;;
40122;SDS011;25832;45.490;4.912;2023-03-14T12:52:10;1.70;;;0.80;;
40122;SDS011;25832;45.490;4.912;2023-03-14T12:59:48;2.50;;;0.80;;
40122;SDS011;25832;45.490;4.912;2023-03-14T13:02:21;4.40;;;0.80;;
40122;SDS011;25832;45.490;4.912;2023-03-14T13:04:52;2.20;;;0.32;;
40122;SDS011;25832;45.490;4.912;2023-03-14T13:12:56;3.00;;;0.90;;
40122;SDS011;25832;45.490;4.912;2023-03-14T13:15:43;1.77;;;0.43;;
40122;SDS011;25832;45.490;4.912;2023-03-14T13:18:13;3.27;;;0.97;;
40122;SDS011;25832;45.490;4.912;2023-03-14T13:20:44;4.43;;;1.57;;
40122;SDS011;25832;45.490;4.912;2023-03-14T13:23:21;6.43;;;2.45;;
40122;SDS011;25832;45.490;4.912;2023-03-14T13:25:49;3.50;;;1.02;;
40122;SDS011;25832;45.490;4.912;2023-03-14T13:28:15;3.05;;;0.90;;
40122;SDS011;25832;45.490;4.912;2023-03-14T13:30:42;3.55;;;1.20;;
40122;SDS011;25832;45.490;4.912;2023-03-14T13:33:16;4.05;;;1.33;;
40122;SDS011;25832;45.490;4.912;2023-03-14T13:35:54;2.83;;;1.10;;
40122;SDS011;25832;45.490;4.912;2023-03-14T13:38:26;4.38;;;1.80;;
40122;SDS011;25832;45.490;4.912;2023-03-14T13:40:56;4.28;;;0.85;;
40122;SDS011;25832;45.490;4.912;2023-03-14T13:43:27;2.38;;;1.00;;
40122;SDS011;25832;45.490;4.912;2023-03-14T13:48:22;2.97;;;1.20;;
40122;SDS011;25832;45.490;4.912;2023-03-14T13:50:52;5.10;;;1.25;;
40122;SDS011;25832;45.490;4.912;2023-03-14T13:53:20;2.97;;;1.00;;
40122;SDS011;25832;45.490;4.912;2023-03-14T13:55:46;2.83;;;1.23;;
40122;SDS011;25832;45.490;4.912;2023-03-14T14:03:44;3.30;;;0.82;;
40122;SDS011;25832;45.490;4.912;2023-03-14T14:08:52;4.63;;;1.13;;
40122;SDS011;25832;45.490;4.912;2023-03-14T14:11:21;6.13;;;1.70;;
40122;SDS011;25832;45.490;4.912;2023-03-14T14:14:02;4.28;;;0.73;;
40122;SDS011;25832;45.490;4.912;2023-03-14T14:16:31;4.50;;;0.98;;
40122;SDS011;25832;45.490;4.912;2023-03-14T14:18:56;3.95;;;1.80;;
40122;SDS011;25832;45.490;4.912;2023-03-14T14:21:24;3.40;;;0.93;;
40122;SDS011;25832;45.490;4.912;2023-03-14T14:23:51;3.60;;;1.02;;
40122;SDS011;25832;45.490;4.912;2023-03-14T14:26:18;4.35;;;1.55;;
40122;SDS011;25832;45.490;4.912;2023-03-14T14:28:44;5.10;;;1.30;;
40122;SDS011;25832;45.490;4.912;2023-03-14T14:33:59;7.47;;;0.95;;
40122;SDS011;25832;45.490;4.912;2023-03-14T14:36:41;2.15;;;0.85;;
40122;SDS011;25832;45.490;4.912;2023-03-14T14:41:49;5.30;;;1.52;;
40122;SDS011;25832;45.490;4.912;2023-03-14T14:44:17;4.75;;;1.23;;
40122;SDS011;25832;45.490;4.912;2023-03-14T14:46:52;5.00;;;1.20;;
40122;SDS011;25832;45.490;4.912;2023-03-14T14:49:20;2.42;;;1.02;;
40122;SDS011;25832;45.490;4.912;2023-03-14T14:51:49;6.55;;;1.13;;
40122;SDS011;25832;45.490;4.912;2023-03-14T14:54:16;6.68;;;1.23;;
40122;SDS011;25832;45.490;4.912;2023-03-14T14:56:48;4.18;;;1.65;;
40122;SDS011;25832;45.490;4.912;2023-03-14T14:59:23;7.55;;;1.92;;
40122;SDS011;25832;45.490;4.912;2023-03-14T15:01:57;2.00;;;1.17;;
40122;SDS011;25832;45.490;4.912;2023-03-14T15:04:24;5.88;;;0.75;;
40122;SDS011;25832;45.490;4.912;2023-03-14T15:06:50;3.60;;;1.10;;
40122;SDS011;25832;45.490;4.912;2023-03-14T15:09:18;5.32;;;1.25;;
40122;SDS011;25832;45.490;4.912;2023-03-14T15:11:45;1.95;;;0.85;;
40122;SDS011;25832;45.490;4.912;2023-03-14T15:14:11;4.47;;;0.98;;
40122;SDS011;25832;45.490;4.912;2023-03-14T15:16:36;5.78;;;1.38;;
40122;SDS011;25832;45.490;4.912;2023-03-14T15:19:12;2.55;;;1.08;;
40122;SDS011;25832;45.490;4.912;2023-03-14T15:21:45;7.78;;;1.65;;
40122;SDS011;25832;45.490;4.912;2023-03-14T15:24:11;4.47;;;1.25;;
40122;SDS011;25832;45.490;4.912;2023-03-14T15:26:36;3.03;;;1.15;;
40122;SDS011;25832;45.490;4.912;2023-03-14T15:29:02;3.20;;;1.20;;
40122;SDS011;25832;45.490;4.912;2023-03-14T15:31:28;3.88;;;1.33;;
40122;SDS011;25832;45.490;4.912;2023-03-14T15:33:53;2.72;;;0.70;;
40122;SDS011;25832;45.490;4.912;2023-03-14T15:36:23;6.97;;;2.00;;
40122;SDS011;25832;45.490;4.912;2023-03-14T15:38:51;3.92;;;1.73;;
40122;SDS011;25832;45.490;4.912;2023-03-14T15:41:17;8.02;;;3.13;;
40122;SDS011;25832;45.490;4.912;2023-03-14T15:43:44;4.10;;;2.35;;
40122;SDS011;25832;45.490;4.912;2023-03-14T15:46:10;5.88;;;1.42;;
40122;SDS011;25832;45.490;4.912;2023-03-14T15:48:36;4.50;;;1.13;;
40122;SDS011;25832;45.490;4.912;2023-03-14T15:51:02;3.53;;;1.40;;
40122;SDS011;25832;45.490;4.912;2023-03-14T15:53:28;3.88;;;1.08;;
40122;SDS011;25832;45.490;4.912;2023-03-14T15:55:54;2.58;;;1.20;;
40122;SDS011;25832;45.490;4.912;2023-03-14T15:58:20;5.03;;;1.15;;
40122;SDS011;25832;45.490;4.912;2023-03-14T16:00:46;8.45;;;0.88;;
40122;SDS011;25832;45.490;4.912;2023-03-14T16:03:12;7.00;;;1.58;;
40122;SDS011;25832;45.490;4.912;2023-03-14T16:05:38;2.58;;;1.35;;
40122;SDS011;25832;45.490;4.912;2023-03-14T16:08:05;5.03;;;1.15;;
40122;SDS011;25832;45.490;4.912;2023-03-14T16:10:31;3.92;;;1.40;;
40122;SDS011;25832;45.490;4.912;2023-03-14T16:12:57;3.25;;;1.42;;
40122;SDS011;25832;45.490;4.912;2023-03-14T16:15:24;2.67;;;0.98;;
40122;SDS011;25832;45.490;4.912;2023-03-14T16:17:52;4.90;;;0.70;;
40122;SDS011;25832;45.490;4.912;2023-03-14T16:20:18;4.47;;;0.82;;
40122;SDS011;25832;45.490;4.912;2023-03-14T16:22:44;1.45;;;0.73;;
40122;SDS011;25832;45.490;4.912;2023-03-14T16:25:11;1.02;;;0.65;;